Time;durP1;ratioP1;P1;durP2;ratioP2;P2;SDS_P1;SDS_P2;PMS_P1;PMS_P2;Temp;Humidity;BMP_temperature;BMP_pressure;BME280_temperature;BME280_humidity;BME280_pressure;Samples;Min_cycle;Max_cycle;Signal;HPM_P1;HPM_P2
2022/01/02 00:01:20;;;;;;;19.52;5.57;;;10.60;83.80;;;;;;4141197;28;20080;-82
2022/01/02 00:03:20;;;;;;;16.33;4.88;;;10.70;83.90;;;;;;4133988;28;20045;-83
2022/01/02 00:05:22;;;;;;;12.55;5.07;;;10.60;83.90;;;;;;4135610;28;20026;-83
2022/01/02 00:07:22;;;;;;;13.65;6.20;;;10.60;84.00;;;;;;4135496;28;20026;-82
2022/01/02 00:09:31;;;;;;;16.58;5.53;;;10.70;84.00;;;;;;4134098;28;20398;-82
2022/01/02 00:11:32;;;;;;;11.88;5.00;;;10.60;84.00;;;;;;4122100;28;20417;-83
2022/01/02 00:13:35;;;;;;;14.40;5.22;;;10.60;84.00;;;;;;4130563;28;20030;-83
2022/01/02 00:15:37;;;;;;;13.55;5.90;;;10.60;84.00;;;;;;4135719;28;20460;-82
2022/01/02 00:17:38;;;;;;;12.48;4.78;;;10.60;84.10;;;;;;4118849;28;20472;-82
2022/01/02 00:19:41;;;;;;;10.02;4.97;;;10.60;84.10;;;;;;4135270;28;20026;-83
2022/01/02 00:21:44;;;;;;;9.88;4.82;;;10.60;84.20;;;;;;4143884;28;20026;-82
2022/01/02 00:24:06;;;;;;;12.63;4.80;;;10.60;84.20;;;;;;4137108;28;20117;-82
2022/01/02 00:26:07;;;;;;;13.65;5.20;;;10.60;84.20;;;;;;4137016;28;20039;-82
2022/01/02 00:28:09;;;;;;;11.55;4.93;;;10.60;84.20;;;;;;4142768;28;20029;-83
2022/01/02 00:30:10;;;;;;;11.10;5.10;;;10.60;84.20;;;;;;4166611;28;20027;-82
2022/01/02 00:32:11;;;;;;;10.18;4.97;;;10.60;84.20;;;;;;4139684;28;20070;-83
2022/01/02 00:34:11;;;;;;;12.25;4.95;;;10.60;84.10;;;;;;4134283;28;20026;-83
2022/01/02 00:36:12;;;;;;;18.40;5.90;;;10.60;84.10;;;;;;4148566;28;20471;-83
2022/01/02 00:38:20;;;;;;;12.75;5.03;;;10.60;84.10;;;;;;4134647;28;20049;-82
2022/01/02 00:40:20;;;;;;;12.52;4.95;;;10.60;84.10;;;;;;4151197;28;20026;-83
2022/01/02 00:42:26;;;;;;;10.98;5.07;;;10.70;84.10;;;;;;4151902;28;20109;-83
2022/01/02 00:44:57;;;;;;;13.65;5.90;;;10.60;84.10;;;;;;4133654;28;20030;-82
2022/01/02 00:47:05;;;;;;;14.00;5.50;;;10.60;84.10;;;;;;4139282;28;20103;-82
2022/01/02 00:49:06;;;;;;;12.00;5.20;;;10.60;84.10;;;;;;4150882;28;20759;-83
2022/01/02 00:51:28;;;;;;;10.75;5.82;;;10.60;84.00;;;;;;4133536;28;20037;-83
2022/01/02 00:53:33;;;;;;;17.40;5.65;;;10.60;83.90;;;;;;4136448;28;20512;-82
2022/01/02 00:55:34;;;;;;;21.83;5.55;;;10.70;84.00;;;;;;4115747;28;20023;-82
2022/01/02 00:57:37;;;;;;;17.73;5.72;;;10.60;83.90;;;;;;4151736;28;20580;-82
2022/01/02 01:00:03;;;;;;;10.18;5.25;;;10.60;83.90;;;;;;4155682;28;20037;-82
2022/01/02 01:02:03;;;;;;;19.10;5.70;;;10.60;83.80;;;;;;4133559;28;20042;-82
2022/01/02 01:04:04;;;;;;;13.38;5.30;;;10.60;83.80;;;;;;4141450;28;20121;-82
2022/01/02 01:06:05;;;;;;;18.08;6.05;;;10.60;83.70;;;;;;4137395;28;20056;-83
2022/01/02 01:08:08;;;;;;;25.33;6.40;;;10.70;83.60;;;;;;4128305;28;20031;-81
2022/01/02 01:10:11;;;;;;;14.95;5.03;;;10.60;84.30;;;;;;4145669;28;20030;-83
2022/01/02 01:12:11;;;;;;;16.83;5.22;;;10.70;83.60;;;;;;4135110;28;20486;-82
2022/01/02 01:14:12;;;;;;;14.30;5.03;;;10.60;83.50;;;;;;4149339;28;20041;-82
2022/01/02 01:16:15;;;;;;;9.73;4.93;;;10.70;83.60;;;;;;4119063;28;20026;-82
2022/01/02 01:18:16;;;;;;;11.60;6.13;;;10.60;83.50;;;;;;4150615;28;20030;-83
2022/01/02 01:20:16;;;;;;;15.13;5.57;;;10.60;83.50;;;;;;4150316;28;20034;-82
2022/01/02 01:22:17;;;;;;;14.48;5.57;;;10.60;83.50;;;;;;4149259;28;20484;-82
2022/01/02 01:24:18;;;;;;;14.63;5.50;;;10.60;83.50;;;;;;4124907;28;20065;-82
2022/01/02 01:26:19;;;;;;;12.05;6.30;;;10.60;83.60;;;;;;4119343;28;20058;-83
2022/01/02 01:28:20;;;;;;;14.30;6.10;;;10.60;83.60;;;;;;4124866;28;20462;-82
2022/01/02 01:30:22;;;;;;;12.90;6.28;;;10.60;83.50;;;;;;4150000;28;20041;-83
2022/01/02 01:32:23;;;;;;;14.95;5.80;;;10.60;84.40;;;;;;4148531;28;20107;-83
2022/01/02 01:34:23;;;;;;;15.07;6.07;;;10.60;83.70;;;;;;4144835;28;20026;-83
2022/01/02 01:36:24;;;;;;;15.05;6.72;;;10.60;83.70;;;;;;4132591;28;20026;-82
2022/01/02 01:38:25;;;;;;;15.10;6.03;;;10.60;83.80;;;;;;4149905;28;20037;-82
2022/01/02 01:40:25;;;;;;;16.17;6.35;;;10.60;83.70;;;;;;4147297;28;20039;-82
2022/01/02 01:42:40;;;;;;;19.42;6.28;;;10.60;83.70;;;;;;4151147;28;20026;-82
2022/01/02 01:47:05;;;;;;;15.63;5.53;;;10.50;83.60;;;;;;4121940;28;20075;-83
2022/01/02 01:49:19;;;;;;;12.82;5.60;;;10.50;83.50;;;;;;4150994;28;20030;-83
2022/01/02 01:51:20;;;;;;;11.88;5.78;;;10.50;83.50;;;;;;4151409;28;20588;-83
2022/01/02 01:53:20;;;;;;;19.40;6.40;;;10.50;83.60;;;;;;4164379;28;20028;-82
2022/01/02 01:55:21;;;;;;;15.05;6.18;;;10.50;83.70;;;;;;4165439;28;20088;-83
2022/01/02 01:57:22;;;;;;;15.43;6.28;;;10.50;83.70;;;;;;4163768;28;20025;-83
2022/01/02 01:59:22;;;;;;;15.05;6.22;;;10.50;83.70;;;;;;4163940;28;20037;-82
2022/01/02 02:01:23;;;;;;;17.15;6.18;;;10.50;83.60;;;;;;4164981;28;20036;-82
2022/01/02 02:03:23;;;;;;;13.30;6.18;;;10.50;83.60;;;;;;4146474;28;20025;-83
2022/01/02 02:05:24;;;;;;;13.90;6.28;;;10.50;83.50;;;;;;4159891;28;20487;-83
2022/01/02 02:07:29;;;;;;;14.35;5.80;;;10.50;83.60;;;;;;4164970;28;20025;-83
2022/01/02 02:09:40;;;;;;;18.23;7.03;;;10.50;83.40;;;;;;4167015;28;20035;-82
2022/01/02 02:11:41;;;;;;;19.10;7.45;;;10.50;83.40;;;;;;4150763;28;20590;-83
2022/01/02 02:13:41;;;;;;;15.55;6.38;;;10.50;83.30;;;;;;4146211;28;20034;-83
2022/01/02 02:15:42;;;;;;;22.42;6.28;;;10.50;83.40;;;;;;4162351;28;20392;-82
2022/01/02 02:17:44;;;;;;;12.15;6.07;;;10.40;83.30;;;;;;4150354;28;20052;-83
2022/01/02 02:19:46;;;;;;;11.27;5.70;;;10.50;83.30;;;;;;4148027;28;20030;-82
2022/01/02 02:21:46;;;;;;;13.15;6.28;;;10.40;83.20;;;;;;4177133;28;20028;-82
2022/01/02 02:23:47;;;;;;;14.13;6.15;;;10.40;83.10;;;;;;4166641;28;20060;-82
2022/01/02 02:25:48;;;;;;;15.70;6.75;;;10.40;83.20;;;;;;4169188;28;20079;-83
2022/01/02 02:27:56;;;;;;;20.17;7.70;;;10.40;83.10;;;;;;4149179;28;20029;-82
2022/01/02 02:29:56;;;;;;;16.50;6.22;;;10.40;83.00;;;;;;4144759;28;20116;-83
2022/01/02 02:31:57;;;;;;;20.60;5.63;;;10.40;83.10;;;;;;4133058;28;20022;-82
2022/01/02 02:33:58;;;;;;;14.40;5.57;;;10.40;83.10;;;;;;4149140;28;20036;-83
2022/01/02 02:35:58;;;;;;;16.75;6.35;;;10.40;83.10;;;;;;4162225;28;20033;-82
2022/01/02 02:37:59;;;;;;;17.02;6.70;;;10.40;82.90;;;;;;4148282;28;20075;-83
2022/01/02 02:40:00;;;;;;;14.98;6.15;;;10.40;83.60;;;;;;4165274;28;20037;-82
2022/01/02 02:42:10;;;;;;;18.58;6.50;;;10.40;83.00;;;;;;4133034;28;20556;-82
2022/01/02 02:44:33;;;;;;;15.38;6.75;;;10.30;82.80;;;;;;4136020;28;20096;-82
2022/01/02 02:49:05;;;;;;;16.50;6.07;;;10.30;82.90;;;;;;4164468;28;20068;-83
2022/01/02 02:51:34;;;;;;;15.32;6.10;;;10.30;83.00;;;;;;4144953;28;20049;-83
2022/01/02 02:53:41;;;;;;;13.93;5.80;;;10.30;83.00;;;;;;4148365;28;20030;-82
2022/01/02 02:55:46;;;;;;;15.27;6.13;;;10.30;83.00;;;;;;4145851;28;20069;-83
2022/01/02 02:57:46;;;;;;;17.65;6.25;;;10.30;83.00;;;;;;4161901;28;20104;-83
2022/01/02 02:59:47;;;;;;;20.15;6.55;;;10.30;83.00;;;;;;4162769;28;20025;-82
2022/01/02 03:01:47;;;;;;;18.05;7.30;;;10.30;83.00;;;;;;4164066;28;20029;-82
2022/01/02 03:03:48;;;;;;;15.77;6.22;;;10.30;83.00;;;;;;4164248;28;20040;-82
2022/01/02 03:05:49;;;;;;;17.60;6.82;;;10.20;82.90;;;;;;4146355;28;20088;-82
2022/01/02 03:07:49;;;;;;;22.25;6.30;;;10.20;83.10;;;;;;4135468;28;20029;-82
2022/01/02 03:09:52;;;;;;;18.98;7.05;;;10.20;83.10;;;;;;4165606;28;20029;-82
2022/01/02 03:11:52;;;;;;;16.02;6.38;;;10.20;83.10;;;;;;4147683;28;20498;-83
2022/01/02 03:13:54;;;;;;;15.88;6.82;;;10.20;83.10;;;;;;4131009;28;20030;-82
2022/01/02 03:15:55;;;;;;;14.27;6.22;;;10.20;83.20;;;;;;4142125;28;20030;-83
2022/01/02 03:17:55;;;;;;;17.38;6.13;;;10.20;83.20;;;;;;4164161;28;20072;-82
2022/01/02 03:19:56;;;;;;;15.20;6.22;;;10.20;83.20;;;;;;4147037;28;20041;-82
2022/01/02 03:21:56;;;;;;;20.50;6.43;;;10.20;83.20;;;;;;4163273;28;20025;-83
2022/01/02 03:23:57;;;;;;;22.30;6.93;;;10.20;83.20;;;;;;4146321;28;20080;-82
2022/01/02 03:25:58;;;;;;;15.82;6.63;;;10.20;83.20;;;;;;4144409;28;20026;-82
2022/01/02 03:27:58;;;;;;;18.08;6.70;;;10.20;83.20;;;;;;4168059;28;20041;-82
2022/01/02 03:29:59;;;;;;;17.92;7.20;;;10.20;83.20;;;;;;4166227;28;20062;-83
2022/01/02 03:32:00;;;;;;;17.02;6.07;;;10.20;83.20;;;;;;4148602;28;20033;-82
2022/01/02 03:34:00;;;;;;;15.52;6.18;;;10.20;83.30;;;;;;4157962;28;20029;-82
2022/01/02 03:36:01;;;;;;;19.38;7.05;;;10.20;83.30;;;;;;4163900;28;20037;-83
2022/01/02 03:38:02;;;;;;;17.75;6.35;;;10.20;83.30;;;;;;4150586;28;20025;-82
2022/01/02 03:40:04;;;;;;;18.42;6.15;;;10.20;83.30;;;;;;4150499;28;20034;-82
2022/01/02 03:42:05;;;;;;;19.38;6.57;;;10.20;83.30;;;;;;4149844;28;20034;-82
2022/01/02 03:44:05;;;;;;;20.05;5.95;;;10.20;83.30;;;;;;4151136;28;20080;-83
2022/01/02 03:46:06;;;;;;;19.20;7.30;;;10.20;83.30;;;;;;4161422;28;20033;-82
2022/01/02 03:48:07;;;;;;;16.17;6.30;;;10.20;83.30;;;;;;4129776;28;20034;-83
2022/01/02 03:50:07;;;;;;;16.25;6.25;;;10.20;83.30;;;;;;4149670;28;20030;-82
2022/01/02 03:52:08;;;;;;;18.10;5.93;;;10.20;83.30;;;;;;4155990;28;20021;-82
2022/01/02 03:54:09;;;;;;;13.00;5.50;;;10.20;83.30;;;;;;4152469;28;20022;-83
2022/01/02 03:56:09;;;;;;;13.32;5.78;;;10.20;83.30;;;;;;4133799;28;20465;-82
2022/01/02 03:58:10;;;;;;;13.98;5.90;;;10.20;83.20;;;;;;4160754;28;20029;-82
2022/01/02 04:00:12;;;;;;;18.02;6.00;;;10.20;83.20;;;;;;4142429;23;20425;-72
2022/01/02 04:02:13;;;;;;;15.23;6.78;;;10.20;83.20;;;;;;4142709;28;20478;-71
2022/01/02 04:04:13;;;;;;;22.08;7.15;;;10.20;83.20;;;;;;4145673;28;20041;-72
2022/01/02 04:06:14;;;;;;;25.33;7.03;;;10.20;83.10;;;;;;4145472;28;20022;-71
2022/01/02 04:08:14;;;;;;;22.75;6.18;;;10.20;83.20;;;;;;4145170;28;20030;-71
2022/01/02 04:10:17;;;;;;;22.55;7.35;;;10.20;83.10;;;;;;4128530;28;20092;-72
2022/01/02 04:12:18;;;;;;;20.33;6.23;;;10.20;83.00;;;;;;4118429;28;20057;-72
2022/01/02 04:14:18;;;;;;;17.65;5.55;;;10.20;83.10;;;;;;4129481;28;20030;-72
2022/01/02 04:16:19;;;;;;;20.10;7.13;;;10.10;83.10;;;;;;4129424;28;20430;-71
2022/01/02 04:18:20;;;;;;;20.85;6.95;;;10.10;83.10;;;;;;4126899;28;20491;-71
2022/01/02 04:20:20;;;;;;;18.55;6.18;;;10.20;83.20;;;;;;4124713;28;20034;-71
2022/01/02 04:22:21;;;;;;;16.30;6.65;;;10.20;83.30;;;;;;4130071;28;20066;-72
2022/01/02 04:24:21;;;;;;;25.65;7.53;;;10.20;83.30;;;;;;4130284;28;20055;-71
2022/01/02 04:26:22;;;;;;;24.83;8.18;;;10.10;83.20;;;;;;4130521;28;20118;-71
2022/01/02 04:28:22;;;;;;;19.85;7.78;;;10.10;83.20;;;;;;4126955;28;20106;-71
2022/01/02 04:30:23;;;;;;;16.05;5.90;;;10.20;83.30;;;;;;4129583;28;20042;-71
2022/01/02 04:32:24;;;;;;;18.27;6.07;;;10.20;83.30;;;;;;4129943;28;20500;-71
2022/01/02 04:34:24;;;;;;;20.33;7.00;;;10.20;83.20;;;;;;4145113;28;20061;-72
2022/01/02 04:36:25;;;;;;;15.57;6.30;;;10.20;83.30;;;;;;4128924;28;20027;-72
2022/01/02 04:38:26;;;;;;;22.92;7.03;;;10.20;83.30;;;;;;4126322;28;20080;-71
2022/01/02 04:40:26;;;;;;;16.30;6.30;;;10.20;83.30;;;;;;4129687;28;20027;-70
2022/01/02 04:42:27;;;;;;;18.40;6.88;;;10.20;83.30;;;;;;4112544;28;20034;-71
2022/01/02 04:44:28;;;;;;;21.90;6.25;;;10.20;83.20;;;;;;4130219;28;20026;-72
2022/01/02 04:46:28;;;;;;;17.00;6.45;;;10.20;83.20;;;;;;4130302;28;20030;-72
2022/01/02 04:48:29;;;;;;;16.60;6.85;;;10.20;83.20;;;;;;4117745;28;20093;-71
2022/01/02 04:50:29;;;;;;;26.20;6.78;;;10.20;83.00;;;;;;4123975;28;20426;-72
2022/01/02 04:52:30;;;;;;;19.45;6.97;;;10.20;83.00;;;;;;4129680;28;20034;-72
2022/01/02 04:54:31;;;;;;;16.80;6.88;;;10.20;83.10;;;;;;4129645;28;20117;-72
2022/01/02 04:56:31;;;;;;;19.35;6.85;;;10.20;83.00;;;;;;4127013;28;20565;-72
2022/01/02 04:58:32;;;;;;;14.02;5.90;;;10.20;82.90;;;;;;4130476;28;20030;-72
2022/01/02 05:00:33;;;;;;;21.17;6.88;;;10.20;82.90;;;;;;4141774;28;20064;-72
2022/01/02 05:02:33;;;;;;;17.98;6.43;;;10.20;82.80;;;;;;4130067;28;20461;-72
2022/01/02 05:04:34;;;;;;;16.00;6.30;;;10.20;82.80;;;;;;4139160;28;20037;-72
2022/01/02 05:06:35;;;;;;;15.80;7.07;;;10.20;82.90;;;;;;4131517;28;20052;-72
2022/01/02 05:08:36;;;;;;;16.35;6.70;;;10.20;82.80;;;;;;4127980;28;20045;-72
2022/01/02 05:10:37;;;;;;;17.67;6.63;;;10.20;82.80;;;;;;4125590;28;20505;-72
2022/01/02 05:12:37;;;;;;;16.08;6.63;;;10.20;82.80;;;;;;4129497;28;20019;-71
2022/01/02 05:14:38;;;;;;;13.35;6.47;;;10.20;82.80;;;;;;4128166;28;20467;-70
2022/01/02 05:16:38;;;;;;;22.80;6.97;;;10.10;82.70;;;;;;4115367;28;20076;-71
2022/01/02 05:18:39;;;;;;;24.65;6.63;;;10.20;82.80;;;;;;4121469;28;20029;-72
2022/01/02 05:20:44;;;;;;;18.95;5.90;;;10.10;82.70;;;;;;4121803;28;20430;-71
2022/01/02 05:22:44;;;;;;;16.88;6.32;;;10.20;82.80;;;;;;4129322;28;20032;-71
2022/01/02 05:24:45;;;;;;;20.80;6.90;;;10.10;82.80;;;;;;4129230;28;20102;-72
2022/01/02 05:26:45;;;;;;;15.75;6.03;;;10.20;82.80;;;;;;4119216;28;20042;-71
2022/01/02 05:28:46;;;;;;;15.13;6.90;;;10.20;82.70;;;;;;4128340;28;20089;-71
2022/01/02 05:30:46;;;;;;;16.23;6.22;;;10.10;82.60;;;;;;4132468;28;20112;-72
2022/01/02 05:32:47;;;;;;;15.80;6.63;;;10.20;82.70;;;;;;4136347;28;20133;-72
2022/01/02 05:34:48;;;;;;;26.45;7.80;;;10.10;82.60;;;;;;4123056;28;20030;-71
2022/01/02 05:36:48;;;;;;;18.80;7.15;;;10.20;82.70;;;;;;4135039;28;20403;-72
2022/01/02 05:38:49;;;;;;;27.75;7.18;;;10.10;82.80;;;;;;4129198;28;20019;-72
2022/01/02 05:40:52;;;;;;;21.80;7.00;;;10.10;82.80;;;;;;4126302;28;20564;-72
2022/01/02 05:42:52;;;;;;;22.97;7.03;;;10.10;82.80;;;;;;4126735;28;20158;-72
2022/01/02 05:44:53;;;;;;;20.73;6.88;;;10.10;82.80;;;;;;4120326;28;20038;-71
2022/01/02 05:46:53;;;;;;;19.27;7.55;;;10.10;82.70;;;;;;4142261;28;20600;-71
2022/01/02 05:48:54;;;;;;;20.45;7.30;;;10.10;82.80;;;;;;4127704;28;20026;-71
2022/01/02 05:50:56;;;;;;;32.28;7.50;;;10.10;82.80;;;;;;4124262;28;20561;-71
2022/01/02 05:52:56;;;;;;;19.92;6.85;;;10.10;82.90;;;;;;4124433;28;20026;-72
2022/01/02 05:54:57;;;;;;;18.85;6.63;;;10.10;82.90;;;;;;4127872;28;20121;-71
2022/01/02 05:56:58;;;;;;;23.77;7.65;;;10.10;82.90;;;;;;4116913;28;20039;-72
2022/01/02 05:58:59;;;;;;;19.08;6.80;;;10.10;82.90;;;;;;4127955;28;20054;-71
2022/01/02 06:00:59;;;;;;;24.02;6.88;;;10.10;82.90;;;;;;4137710;28;20034;-71
2022/01/02 06:03:00;;;;;;;26.38;8.25;;;10.10;82.90;;;;;;4120473;28;20026;-71
2022/01/02 06:05:03;;;;;;;24.05;7.22;;;10.10;82.90;;;;;;4138019;28;20519;-71
2022/01/02 06:07:04;;;;;;;20.80;6.78;;;10.10;82.90;;;;;;4128150;28;20038;-71
2022/01/02 06:09:05;;;;;;;27.48;7.35;;;10.10;82.90;;;;;;4145024;28;20506;-71
2022/01/02 06:11:06;;;;;;;21.80;7.10;;;10.10;83.00;;;;;;4145000;28;20045;-71
2022/01/02 06:13:06;;;;;;;25.40;7.18;;;10.10;83.00;;;;;;4124781;28;20038;-71
2022/01/02 06:15:07;;;;;;;26.20;7.00;;;10.10;83.00;;;;;;4137358;28;20026;-72
2022/01/02 06:17:08;;;;;;;15.75;7.05;;;10.10;83.00;;;;;;4144891;28;20026;-72
2022/01/02 06:19:08;;;;;;;22.40;7.70;;;10.10;83.00;;;;;;4144915;28;20018;-72
2022/01/02 06:21:09;;;;;;;28.67;7.97;;;10.10;83.00;;;;;;4126077;28;20030;-72
2022/01/02 06:23:09;;;;;;;19.42;6.22;;;10.10;83.00;;;;;;4135700;28;20506;-73
2022/01/02 06:25:10;;;;;;;17.90;6.57;;;10.00;83.00;;;;;;4144969;28;20049;-72
2022/01/02 06:27:11;;;;;;;19.33;7.25;;;10.10;83.10;;;;;;4127526;28;20517;-71
2022/01/02 06:29:11;;;;;;;18.38;7.10;;;10.10;83.10;;;;;;4143469;28;20494;-72
2022/01/02 06:31:12;;;;;;;15.27;6.97;;;10.10;83.00;;;;;;4143089;28;20383;-72
2022/01/02 06:33:13;;;;;;;22.17;7.32;;;10.10;83.10;;;;;;4141502;28;20117;-72
2022/01/02 06:35:13;;;;;;;25.70;7.72;;;10.10;83.10;;;;;;4136582;28;20077;-72
2022/01/02 06:37:14;;;;;;;31.13;8.70;;;10.10;83.00;;;;;;4142130;28;20026;-71
2022/01/02 06:39:14;;;;;;;28.58;7.60;;;10.10;83.10;;;;;;4140004;28;20490;-72
2022/01/02 06:41:16;;;;;;;25.17;8.45;;;10.10;83.10;;;;;;4127355;28;20659;-71
2022/01/02 06:43:17;;;;;;;35.25;9.00;;;10.10;83.80;;;;;;4124666;28;20018;-71
2022/01/02 06:45:18;;;;;;;27.75;8.10;;;10.10;83.00;;;;;;4144635;28;20041;-72
2022/01/02 06:47:19;;;;;;;34.70;8.40;;;10.10;83.10;;;;;;4121562;28;20058;-71
2022/01/02 06:49:19;;;;;;;27.83;7.93;;;10.10;83.20;;;;;;4139696;28;20037;-72
2022/01/02 06:51:20;;;;;;;31.23;8.23;;;10.10;83.20;;;;;;4144644;28;20026;-73
2022/01/02 06:53:20;;;;;;;25.85;8.75;;;10.10;83.20;;;;;;4135587;28;20099;-71
2022/01/02 06:55:21;;;;;;;30.95;8.80;;;10.10;83.30;;;;;;4143260;28;20034;-71
2022/01/02 06:57:22;;;;;;;40.00;10.35;;;10.10;83.30;;;;;;4121690;28;20537;-71
2022/01/02 06:59:23;;;;;;;36.28;9.63;;;10.10;83.40;;;;;;4137670;28;20042;-72
2022/01/02 07:01:23;;;;;;;37.25;10.23;;;10.10;83.40;;;;;;4127367;28;20463;-71
2022/01/02 07:03:27;;;;;;;27.92;9.52;;;10.10;83.40;;;;;;4139204;28;20030;-71
2022/01/02 07:05:27;;;;;;;;;;;10.10;83.50;;;;;;4122754;28;20049;-71
2022/01/02 07:07:28;;;;;;;34.00;10.05;;;10.10;83.60;;;;;;4144834;28;19905;-71
2022/01/02 07:09:31;;;;;;;29.52;11.18;;;10.10;83.50;;;;;;4144020;28;20336;-72
2022/01/02 07:11:32;;;;;;;31.42;9.38;;;10.10;83.50;;;;;;4113774;28;20125;-72
2022/01/02 07:13:32;;;;;;;38.00;9.63;;;10.10;83.60;;;;;;4130058;28;20029;-71
2022/01/02 07:15:33;;;;;;;37.45;10.68;;;10.10;83.60;;;;;;4142668;28;20662;-72
2022/01/02 07:17:34;;;;;;;28.30;10.02;;;10.10;83.70;;;;;;4144493;28;20030;-72
2022/01/02 07:19:34;;;;;;;30.95;10.82;;;10.10;83.80;;;;;;4122045;28;20038;-71
2022/01/02 07:21:35;;;;;;;35.03;11.73;;;10.10;83.80;;;;;;4127071;28;20026;-72
2022/01/02 07:23:35;;;;;;;30.67;9.85;;;10.10;83.80;;;;;;4125280;28;20060;-71
2022/01/02 07:25:36;;;;;;;35.50;12.93;;;10.10;83.90;;;;;;4140181;28;20029;-72
2022/01/02 07:27:37;;;;;;;30.63;11.48;;;10.10;83.90;;;;;;4141864;28;20041;-71
2022/01/02 07:29:37;;;;;;;36.13;12.20;;;10.10;84.00;;;;;;4136295;28;20676;-71
2022/01/02 07:31:38;;;;;;;26.60;9.95;;;10.10;84.00;;;;;;4144448;28;20018;-71
2022/01/02 07:33:39;;;;;;;33.67;11.57;;;10.10;84.10;;;;;;4125317;28;20426;-72
2022/01/02 07:35:39;;;;;;;26.17;10.65;;;10.10;84.10;;;;;;4120796;28;20430;-72
2022/01/02 07:37:40;;;;;;;29.90;12.13;;;10.10;84.10;;;;;;4143295;28;20100;-72
2022/01/02 07:39:40;;;;;;;29.63;11.32;;;10.20;84.20;;;;;;4143019;28;20037;-72
2022/01/02 07:41:41;;;;;;;24.45;11.55;;;10.10;84.10;;;;;;4144178;28;20029;-71
2022/01/02 07:43:42;;;;;;;25.20;10.75;;;10.10;84.10;;;;;;4134620;28;20809;-72
2022/01/02 07:45:42;;;;;;;39.38;12.27;;;10.10;84.10;;;;;;4123208;28;20041;-72
2022/01/02 07:47:43;;;;;;;27.85;10.45;;;10.10;84.20;;;;;;4144241;28;20690;-72
2022/01/02 07:49:44;;;;;;;28.98;11.18;;;10.10;84.20;;;;;;4121367;28;20041;-72
2022/01/02 07:51:44;;;;;;;35.38;13.35;;;10.20;84.30;;;;;;4115096;28;20121;-71
2022/01/02 07:53:45;;;;;;;35.05;11.98;;;10.20;84.30;;;;;;4127702;28;20035;-72
2022/01/02 07:55:45;;;;;;;38.40;11.20;;;10.10;84.20;;;;;;4140837;28;20080;-72
2022/01/02 07:57:46;;;;;;;26.77;10.93;;;10.10;84.20;;;;;;4143874;28;20492;-72
2022/01/02 07:59:47;;;;;;;24.58;11.10;;;10.10;84.30;;;;;;4140649;28;20041;-71
2022/01/02 08:01:47;;;;;;;26.70;10.77;;;10.10;84.30;;;;;;4110187;28;20038;-71
2022/01/02 08:03:48;;;;;;;38.10;13.02;;;10.10;84.40;;;;;;4127678;28;20030;-72
2022/01/02 08:05:49;;;;;;;32.80;11.15;;;10.10;84.40;;;;;;4137953;28;20034;-72
2022/01/02 08:07:49;;;;;;;30.20;10.70;;;10.00;84.40;;;;;;4137702;28;20072;-71
2022/01/02 08:09:50;;;;;;;27.52;10.38;;;10.10;84.50;;;;;;4132327;28;20034;-72
2022/01/02 08:11:51;;;;;;;27.73;9.23;;;10.10;84.60;;;;;;4128820;28;20039;-72
2022/01/02 08:13:51;;;;;;;20.05;9.15;;;10.00;84.60;;;;;;4129026;28;20022;-72
2022/01/02 08:15:52;;;;;;;22.25;9.60;;;10.00;84.60;;;;;;4141688;28;20104;-72
2022/01/02 08:17:53;;;;;;;20.95;9.13;;;10.00;85.10;;;;;;4144056;28;20022;-72
2022/01/02 08:19:53;;;;;;;20.45;8.75;;;10.00;84.80;;;;;;4146629;28;20053;-72
2022/01/02 08:21:55;;;;;;;24.65;9.15;;;10.00;84.90;;;;;;4146650;28;20037;-72
2022/01/02 08:23:55;;;;;;;19.15;9.30;;;10.00;85.00;;;;;;4146548;28;20108;-71
2022/01/02 08:25:56;;;;;;;21.15;8.77;;;10.00;85.10;;;;;;4137916;28;20569;-71
2022/01/02 08:27:57;;;;;;;19.90;8.50;;;9.90;85.20;;;;;;4127509;28;20081;-71
2022/01/02 08:29:57;;;;;;;18.13;7.93;;;10.00;85.30;;;;;;4146511;28;20030;-72
2022/01/02 08:31:58;;;;;;;17.77;7.90;;;10.00;85.40;;;;;;4146589;28;20105;-71
2022/01/02 08:33:58;;;;;;;18.73;8.43;;;10.00;85.40;;;;;;4132916;28;20030;-72
2022/01/02 08:35:59;;;;;;;22.27;8.73;;;9.90;85.40;;;;;;4118774;28;20404;-71
2022/01/02 08:38:00;;;;;;;18.58;7.72;;;9.90;85.50;;;;;;4144624;28;20048;-72
2022/01/02 08:40:00;;;;;;;17.67;7.97;;;10.00;85.60;;;;;;4145551;28;20669;-72
2022/01/02 08:42:01;;;;;;;25.00;8.38;;;9.90;85.60;;;;;;4132816;28;20498;-71
2022/01/02 08:44:01;;;;;;;22.30;9.02;;;10.00;85.70;;;;;;4112845;28;20030;-71
2022/01/02 08:46:02;;;;;;;19.10;8.02;;;10.00;85.70;;;;;;4122563;28;20039;-72
2022/01/02 08:48:03;;;;;;;24.95;8.80;;;10.00;85.90;;;;;;4145037;28;20053;-72
2022/01/02 08:50:04;;;;;;;14.57;7.63;;;10.00;85.90;;;;;;4141239;28;20076;-71
2022/01/02 08:52:05;;;;;;;16.58;7.15;;;10.00;86.00;;;;;;4138012;28;20025;-71
2022/01/02 08:54:05;;;;;;;15.75;7.68;;;10.00;86.00;;;;;;4146116;28;20025;-72
2022/01/02 08:56:06;;;;;;;19.98;8.07;;;10.00;86.00;;;;;;4146043;28;20033;-72
2022/01/02 08:58:08;;;;;;;19.02;7.13;;;10.00;86.10;;;;;;4128329;28;20030;-71
2022/01/02 09:00:09;;;;;;;26.05;8.05;;;10.00;86.10;;;;;;4145850;28;20048;-71
2022/01/02 09:02:10;;;;;;;13.85;6.40;;;10.00;86.20;;;;;;4129061;28;20045;-71
2022/01/02 09:04:11;;;;;;;14.05;7.38;;;10.00;86.20;;;;;;4146092;28;20034;-71
2022/01/02 09:06:11;;;;;;;15.45;6.95;;;10.10;86.30;;;;;;4125972;28;20084;-71
2022/01/02 09:08:12;;;;;;;15.25;7.43;;;10.00;86.20;;;;;;4138584;28;20120;-72
2022/01/02 09:10:15;;;;;;;16.85;7.18;;;10.10;86.30;;;;;;4146001;28;20033;-71
2022/01/02 09:12:15;;;;;;;17.35;7.03;;;10.10;86.40;;;;;;4146160;28;20524;-72
2022/01/02 09:14:16;;;;;;;17.60;7.20;;;10.10;86.30;;;;;;4125725;28;20042;-72
2022/01/02 09:16:18;;;;;;;23.00;8.90;;;10.10;86.30;;;;;;4137652;28;20295;-71
2022/01/02 09:18:19;;;;;;;17.73;7.60;;;10.10;86.30;;;;;;4144973;28;20026;-72
2022/01/02 09:20:21;;;;;;;23.17;8.07;;;10.10;86.30;;;;;;4145735;28;20030;-71
2022/01/02 09:22:21;;;;;;;19.15;8.25;;;10.10;87.00;;;;;;4133753;28;20534;-71
2022/01/02 09:24:22;;;;;;;15.55;8.10;;;10.10;86.30;;;;;;4129181;28;20030;-71
2022/01/02 09:26:22;;;;;;;17.15;7.53;;;10.10;86.30;;;;;;4136693;28;20022;-72
2022/01/02 09:28:23;;;;;;;21.30;7.53;;;10.10;86.30;;;;;;4144227;28;20042;-72
2022/01/02 09:30:23;;;;;;;18.90;7.38;;;10.20;86.40;;;;;;4142013;28;20033;-70
2022/01/02 09:32:24;;;;;;;19.58;7.88;;;10.20;86.40;;;;;;4145837;28;20073;-71
2022/01/02 09:34:25;;;;;;;15.52;7.32;;;10.20;86.40;;;;;;4128068;28;20030;-72
2022/01/02 09:36:26;;;;;;;17.38;7.22;;;10.20;86.40;;;;;;4142779;28;20026;-72
2022/01/02 09:38:26;;;;;;;14.23;7.07;;;10.20;86.40;;;;;;4139408;28;20032;-71
2022/01/02 09:40:27;;;;;;;19.40;7.85;;;10.20;86.50;;;;;;4144954;28;20021;-72
2022/01/02 09:42:27;;;;;;;15.32;6.53;;;10.20;86.50;;;;;;4145636;28;20026;-71
2022/01/02 09:44:29;;;;;;;13.45;6.55;;;10.30;86.50;;;;;;4145306;28;20033;-71
2022/01/02 09:46:30;;;;;;;14.45;5.95;;;10.20;86.40;;;;;;4137455;28;20482;-71
2022/01/02 09:48:31;;;;;;;16.15;5.57;;;10.30;86.50;;;;;;4151758;23;20045;-76
2022/01/02 09:50:32;;;;;;;9.00;5.20;;;10.30;86.50;;;;;;4156832;28;20042;-76
2022/01/02 09:52:33;;;;;;;9.20;5.30;;;10.30;86.40;;;;;;4143896;28;20040;-76
2022/01/02 09:54:34;;;;;;;11.93;5.72;;;10.30;86.50;;;;;;4126579;28;20030;-76
2022/01/02 09:56:34;;;;;;;8.40;5.18;;;10.30;86.50;;;;;;4118849;28;20042;-76
2022/01/02 09:58:35;;;;;;;7.80;4.82;;;10.30;86.50;;;;;;4136966;28;20038;-76
2022/01/02 10:00:36;;;;;;;7.03;4.43;;;10.30;86.50;;;;;;4150196;28;20029;-76
2022/01/02 10:02:59;;;;;;;6.55;4.32;;;10.30;86.60;;;;;;4120545;28;20404;-77
2022/01/02 10:05:01;;;;;;;6.38;4.15;;;10.30;86.70;;;;;;4135663;28;20045;-76
2022/01/02 10:07:03;;;;;;;7.10;4.13;;;10.30;86.70;;;;;;4121542;28;20023;-75
2022/01/02 10:09:03;;;;;;;7.25;4.25;;;10.30;86.70;;;;;;4139306;28;20404;-77
2022/01/02 10:11:21;;;;;;;9.10;4.45;;;10.40;86.80;;;;;;4150483;28;20022;-76
2022/01/02 10:13:42;;;;;;;5.22;3.60;;;10.40;86.80;;;;;;4142149;28;20018;-77
2022/01/02 10:15:45;;;;;;;7.28;4.10;;;10.40;86.80;;;;;;4135152;28;20063;-76
2022/01/02 10:18:08;;;;;;;6.18;4.32;;;10.40;86.90;;;;;;4119920;28;20464;-77
2022/01/02 10:20:15;;;;;;;6.45;4.15;;;10.40;86.90;;;;;;4136282;28;20038;-75
2022/01/02 10:22:15;;;;;;;8.90;4.57;;;10.40;86.80;;;;;;4136660;28;20046;-77
2022/01/02 10:24:17;;;;;;;7.43;4.70;;;10.40;86.90;;;;;;4135857;28;20034;-77
2022/01/02 10:26:18;;;;;;;6.72;4.10;;;10.50;86.90;;;;;;4143937;28;20507;-77
2022/01/02 10:28:33;;;;;;;6.05;4.40;;;10.50;86.80;;;;;;4143241;28;20072;-77
2022/01/02 10:30:33;;;;;;;5.10;3.92;;;10.50;86.80;;;;;;4110117;28;20516;-75
2022/01/02 10:32:34;;;;;;;8.00;4.10;;;10.50;86.70;;;;;;4120461;28;20034;-77